Time;durP1;ratioP1;P1;durP2;ratioP2;P2;SDS_P1;SDS_P2;PMS_P1;PMS_P2;Temp;Humidity;BMP_temperature;BMP_pressure;BME280_temperature;BME280_humidity;BME280_pressure;Samples;Min_cycle;Max_cycle;Signal;HPM_P1;HPM_P2
2021/08/23 00:00:39;;;;;;;41.60;13.10;;;18.60;99.90;;;;;;4117255;28;20269;-93
2021/08/23 00:02:39;;;;;;;29.38;12.82;;;18.50;99.90;;;;;;4133555;28;20665;-94
2021/08/23 00:04:40;;;;;;;36.80;12.30;;;18.50;99.90;;;;;;4133422;28;20177;-92
2021/08/23 00:06:41;;;;;;;27.40;12.27;;;18.50;99.90;;;;;;4117007;28;20194;-94
2021/08/23 00:08:42;;;;;;;33.38;12.88;;;18.40;99.90;;;;;;4133337;28;20287;-94
2021/08/23 00:10:42;;;;;;;35.85;12.35;;;18.40;99.90;;;;;;4133176;28;20523;-93
2021/08/23 00:12:43;;;;;;;32.55;12.60;;;18.40;99.90;;;;;;4133340;28;20205;-93
2021/08/23 00:14:44;;;;;;;34.30;12.32;;;18.30;99.90;;;;;;4117475;28;20194;-92
2021/08/23 00:16:45;;;;;;;34.75;12.60;;;18.50;99.90;;;;;;4149523;28;20193;-94
2021/08/23 00:18:47;;;;;;;32.22;12.65;;;18.50;99.90;;;;;;4117100;28;20170;-92
2021/08/23 00:20:55;;;;;;;27.23;12.30;;;18.50;99.90;;;;;;4132845;28;20188;-95
2021/08/23 00:22:56;;;;;;;31.27;12.60;;;18.50;99.90;;;;;;4132978;28;20189;-91
2021/08/23 00:24:59;;;;;;;34.47;14.15;;;18.40;99.90;;;;;;4132934;28;20184;-92
2021/08/23 00:26:59;;;;;;;24.10;11.90;;;18.60;99.90;;;;;;4117005;28;20198;-92
2021/08/23 00:29:00;;;;;;;29.88;14.15;;;18.40;99.90;;;;;;4132897;28;20200;-92
2021/08/23 00:31:01;;;;;;;31.88;13.35;;;18.40;99.90;;;;;;4132808;28;20173;-94
2021/08/23 00:33:03;;;;;;;33.67;13.40;;;18.40;99.90;;;;;;4133279;28;20617;-94
2021/08/23 00:35:04;;;;;;;30.83;12.73;;;18.40;99.90;;;;;;4133197;28;20197;-95
2021/08/23 00:37:05;;;;;;;30.85;13.75;;;18.30;99.90;;;;;;4133131;28;20285;-95
2021/08/23 00:39:07;;;;;;;31.10;13.38;;;18.30;99.90;;;;;;4132836;28;20177;-94
2021/08/23 00:41:08;;;;;;;27.45;13.98;;;18.20;99.90;;;;;;4132609;28;20174;-94
2021/08/23 00:43:08;;;;;;;34.65;13.48;;;18.30;99.90;;;;;;4116836;28;20175;-94
2021/08/23 00:45:09;;;;;;;35.70;12.93;;;18.30;99.90;;;;;;4133203;28;20164;-93
2021/08/23 00:47:10;;;;;;;28.20;13.30;;;18.10;99.90;;;;;;4133041;28;20197;-94
2021/08/23 00:49:13;;;;;;;31.58;13.55;;;18.20;99.90;;;;;;4132810;28;20177;-93
2021/08/23 00:51:14;;;;;;;37.45;13.57;;;18.30;99.90;;;;;;4132704;28;20181;-92
2021/08/23 00:53:16;;;;;;;34.08;13.18;;;18.30;99.90;;;;;;4132734;28;20181;-92
2021/08/23 00:55:16;;;;;;;29.05;12.75;;;18.30;99.90;;;;;;4132814;28;20173;-92
2021/08/23 00:57:17;;;;;;;33.40;13.25;;;18.20;99.90;;;;;;4116750;28;20217;-94
2021/08/23 00:59:26;;;;;;;30.95;13.02;;;18.30;99.90;;;;;;4116778;28;20171;-92
2021/08/23 01:01:49;;;;;;;35.03;12.85;;;18.40;99.90;;;;;;4148707;28;20172;-92
2021/08/23 01:04:02;;;;;;;34.22;12.85;;;18.30;99.90;;;;;;4132692;28;20177;-94
2021/08/23 01:06:06;;;;;;;31.67;11.75;;;18.30;99.90;;;;;;4117391;28;20185;-93
2021/08/23 01:08:32;;;;;;;31.92;13.18;;;18.20;99.90;;;;;;4117534;28;20182;-92
2021/08/23 01:10:42;;;;;;;32.00;12.73;;;18.40;99.90;;;;;;4133467;28;20251;-94
2021/08/23 01:12:43;;;;;;;38.42;11.45;;;18.30;99.90;;;;;;4132597;28;20274;-93
2021/08/23 01:14:45;;;;;;;32.80;12.13;;;18.30;99.90;;;;;;4132424;28;20181;-93
2021/08/23 01:16:45;;;;;;;32.15;12.05;;;18.30;99.90;;;;;;4132316;28;20185;-95
2021/08/23 01:18:46;;;;;;;30.05;11.02;;;18.30;99.90;;;;;;4116845;28;20225;-95
2021/08/23 01:20:50;;;;;;;30.00;12.75;;;18.30;99.90;;;;;;4117216;28;20170;-93
2021/08/23 01:22:54;;;;;;;35.10;12.40;;;18.30;99.90;;;;;;4132980;28;20181;-94
2021/08/23 01:24:58;;;;;;;27.02;11.55;;;18.30;99.90;;;;;;4132557;28;20173;-94
2021/08/23 01:27:03;;;;;;;34.38;12.15;;;18.30;99.90;;;;;;4132950;28;20228;-94
2021/08/23 01:29:16;;;;;;;28.88;11.48;;;18.40;99.90;;;;;;4132339;28;20278;-93
2021/08/23 01:31:40;;;;;;;29.42;11.45;;;18.40;99.90;;;;;;4132684;28;20209;-93
2021/08/23 01:33:42;;;;;;;28.83;10.80;;;18.50;99.90;;;;;;4132782;28;20227;-93
2021/08/23 01:35:43;;;;;;;28.42;11.15;;;18.30;99.90;;;;;;4132750;28;20612;-93
2021/08/23 01:37:44;;;;;;;26.48;10.73;;;18.30;99.90;;;;;;4116286;28;20198;-94
2021/08/23 01:39:45;;;;;;;25.95;10.25;;;18.30;99.90;;;;;;4132181;28;20189;-93
2021/08/23 01:41:46;;;;;;;33.88;10.77;;;18.20;99.90;;;;;;4132231;28;20169;-93
2021/08/23 01:43:47;;;;;;;36.05;11.18;;;18.40;99.90;;;;;;4132443;28;20282;-95
2021/08/23 01:45:47;;;;;;;29.65;10.40;;;18.40;99.90;;;;;;4116224;28;20229;-93
2021/08/23 01:47:48;;;;;;;32.15;10.88;;;18.40;99.90;;;;;;4132216;28;20566;-91
2021/08/23 01:49:49;;;;;;;32.63;11.10;;;18.30;99.90;;;;;;4116683;28;20166;-93
2021/08/23 01:51:50;;;;;;;30.40;11.35;;;18.30;99.90;;;;;;4132259;28;20293;-95
2021/08/23 01:53:50;;;;;;;24.33;10.63;;;18.40;99.90;;;;;;4116571;28;20269;-94
2021/08/23 01:55:51;;;;;;;26.60;10.93;;;18.40;99.90;;;;;;4132463;28;20185;-93
2021/08/23 01:57:52;;;;;;;36.40;10.52;;;18.30;99.90;;;;;;4132179;28;20331;-94
2021/08/23 01:59:53;;;;;;;32.03;10.80;;;18.20;99.90;;;;;;4132208;28;20261;-92
2021/08/23 02:01:54;;;;;;;30.17;11.40;;;18.40;99.90;;;;;;4132315;28;20174;-93
2021/08/23 02:03:55;;;;;;;31.17;10.95;;;18.50;99.90;;;;;;4132100;28;20165;-94
2021/08/23 02:05:55;;;;;;;27.40;10.13;;;18.60;99.90;;;;;;4132096;28;20166;-92
2021/08/23 02:07:56;;;;;;;34.58;11.07;;;18.50;99.90;;;;;;4131964;28;20680;-93
2021/08/23 02:09:57;;;;;;;31.05;11.45;;;18.50;99.90;;;;;;4116158;28;20174;-92
2021/08/23 02:11:58;;;;;;;24.92;10.48;;;18.40;99.90;;;;;;4147866;28;20216;-93
2021/08/23 02:13:59;;;;;;;32.30;10.82;;;18.40;99.90;;;;;;4134974;28;20232;-94
2021/08/23 02:16:00;;;;;;;27.88;10.45;;;18.40;99.90;;;;;;4135101;28;20180;-96
2021/08/23 02:18:00;;;;;;;32.15;10.82;;;18.60;99.90;;;;;;4119158;28;20178;-92
2021/08/23 02:20:04;;;;;;;21.23;10.20;;;18.60;99.90;;;;;;4151220;28;20173;-94
2021/08/23 02:22:05;;;;;;;28.02;10.40;;;18.30;99.90;;;;;;4151222;28;20626;-92
2021/08/23 02:24:05;;;;;;;29.42;9.93;;;18.30;99.90;;;;;;4134702;28;20269;-94
2021/08/23 02:26:06;;;;;;;19.63;9.73;;;18.30;99.90;;;;;;4134764;28;20681;-92
2021/08/23 02:28:07;;;;;;;21.15;9.85;;;18.30;99.90;;;;;;4151010;28;20176;-94
2021/08/23 02:30:08;;;;;;;33.78;10.18;;;18.40;99.90;;;;;;4134690;28;20270;-93
2021/08/23 02:32:09;;;;;;;24.05;9.93;;;18.40;99.90;;;;;;4150870;28;20289;-93
2021/08/23 02:34:10;;;;;;;30.17;9.70;;;18.50;99.90;;;;;;4134598;28;20198;-94
2021/08/23 02:36:11;;;;;;;31.98;9.73;;;18.40;99.90;;;;;;4118469;28;20573;-93
2021/08/23 02:38:12;;;;;;;21.92;9.07;;;18.50;99.90;;;;;;4151034;28;20176;-93
2021/08/23 02:40:13;;;;;;;38.25;9.35;;;18.50;99.90;;;;;;4134869;28;20658;-94
2021/08/23 02:42:14;;;;;;;28.30;8.73;;;18.50;99.90;;;;;;4150972;28;20201;-93
2021/08/23 02:44:15;;;;;;;23.90;9.45;;;18.60;99.90;;;;;;4134693;28;20216;-92
2021/08/23 02:46:15;;;;;;;21.60;8.38;;;18.60;99.90;;;;;;4134346;28;20229;-94
2021/08/23 02:48:17;;;;;;;17.88;8.40;;;18.50;99.90;;;;;;4118548;28;20178;-94
2021/08/23 02:50:18;;;;;;;24.48;8.65;;;18.50;99.90;;;;;;4136239;28;20269;-94
2021/08/23 02:52:19;;;;;;;20.27;8.30;;;18.40;99.90;;;;;;4136021;28;20246;-94
2021/08/23 02:54:20;;;;;;;26.88;8.60;;;18.50;99.90;;;;;;4119375;28;20167;-94
2021/08/23 02:56:21;;;;;;;23.38;8.85;;;18.50;99.90;;;;;;4119953;28;20210;-93
2021/08/23 02:58:22;;;;;;;22.42;7.72;;;18.50;99.90;;;;;;4119635;28;20242;-92
2021/08/23 03:00:23;;;;;;;19.38;8.20;;;18.50;99.90;;;;;;4136264;28;20213;-94
2021/08/23 03:02:24;;;;;;;25.42;8.43;;;18.50;99.90;;;;;;4120088;28;20178;-93
2021/08/23 03:04:25;;;;;;;24.45;8.60;;;18.40;99.90;;;;;;4121260;28;20182;-93
2021/08/23 03:06:25;;;;;;;26.30;9.02;;;18.40;99.90;;;;;;4135405;28;20197;-93
2021/08/23 03:08:26;;;;;;;24.35;8.95;;;18.40;99.90;;;;;;4120083;28;20233;-94
2021/08/23 03:10:27;;;;;;;21.00;8.43;;;18.40;99.90;;;;;;4135793;28;20213;-92
2021/08/23 03:12:28;;;;;;;20.77;8.32;;;18.30;99.90;;;;;;4134724;28;20217;-93
2021/08/23 03:14:29;;;;;;;29.08;9.20;;;18.30;99.90;;;;;;4118157;28;20233;-95
2021/08/23 03:16:30;;;;;;;18.52;8.45;;;18.30;99.90;;;;;;4135349;28;20220;-93
2021/08/23 03:18:31;;;;;;;28.10;9.55;;;18.40;99.90;;;;;;4118655;28;20170;-93
2021/08/23 03:20:32;;;;;;;21.92;8.68;;;18.30;99.90;;;;;;4136370;28;20202;-93
2021/08/23 03:22:33;;;;;;;26.58;8.77;;;18.30;99.90;;;;;;4119519;28;20171;-92
2021/08/23 03:24:34;;;;;;;24.95;8.75;;;18.30;99.90;;;;;;4135130;28;20176;-93
2021/08/23 03:26:35;;;;;;;26.70;9.27;;;18.30;99.90;;;;;;4118052;28;20606;-94
2021/08/23 03:28:35;;;;;;;23.35;9.02;;;18.20;99.90;;;;;;4135087;28;20182;-94
2021/08/23 03:30:36;;;;;;;23.77;8.20;;;18.30;99.90;;;;;;4134584;28;20634;-93
2021/08/23 03:32:37;;;;;;;21.42;8.90;;;18.30;99.90;;;;;;4118102;28;20224;-96
2021/08/23 03:34:38;;;;;;;36.75;8.77;;;18.30;99.90;;;;;;4134187;28;20686;-93
2021/08/23 03:36:43;;;;;;;27.48;9.13;;;18.30;99.90;;;;;;4133914;28;20201;-94
2021/08/23 03:38:47;;;;;;;29.02;7.72;;;18.40;99.90;;;;;;4150250;28;20598;-93
2021/08/23 03:40:48;;;;;;;23.77;8.07;;;18.40;99.90;;;;;;4133834;28;20566;-92
2021/08/23 03:42:49;;;;;;;27.42;8.57;;;18.40;99.90;;;;;;4133647;28;20176;-93
2021/08/23 03:44:50;;;;;;;26.13;7.82;;;18.60;99.90;;;;;;4134664;28;20646;-93
2021/08/23 03:46:54;;;;;;;27.20;9.02;;;18.70;99.90;;;;;;4134197;28;20251;-93
2021/08/23 03:48:55;;;;;;;35.83;8.80;;;18.60;99.90;;;;;;4134166;28;20184;-95
2021/08/23 03:50:56;;;;;;;24.25;7.90;;;18.60;99.90;;;;;;4117751;28;20639;-94
2021/08/23 03:52:57;;;;;;;30.15;7.88;;;18.60;99.90;;;;;;4133924;28;20304;-94
2021/08/23 03:54:57;;;;;;;25.20;7.85;;;18.70;99.90;;;;;;4134540;28;20649;-93
2021/08/23 03:56:58;;;;;;;29.83;7.78;;;18.70;99.90;;;;;;4149959;28;20197;-93
2021/08/23 03:58:59;;;;;;;18.67;7.25;;;18.80;99.90;;;;;;4134501;28;20169;-93
2021/08/23 04:01:00;;;;;;;24.33;8.13;;;18.70;99.90;;;;;;4149886;28;20168;-93
2021/08/23 04:03:00;;;;;;;26.58;7.63;;;18.70;99.90;;;;;;4133820;28;20228;-95
2021/08/23 04:05:01;;;;;;;21.33;6.93;;;18.60;99.90;;;;;;4149684;28;20177;-92
2021/08/23 04:07:02;;;;;;;24.38;7.40;;;18.70;99.90;;;;;;4133393;28;20280;-93
2021/08/23 04:09:03;;;;;;;21.65;6.60;;;18.80;99.90;;;;;;4117670;28;20190;-93
2021/08/23 04:11:05;;;;;;;22.15;7.18;;;18.80;99.90;;;;;;4149802;28;20173;-93
2021/08/23 04:13:05;;;;;;;19.35;7.40;;;18.70;99.90;;;;;;4133346;28;20279;-95
2021/08/23 04:15:07;;;;;;;24.20;7.50;;;18.70;99.90;;;;;;4133817;28;20165;-93
2021/08/23 04:17:07;;;;;;;22.98;6.97;;;18.70;99.90;;;;;;4149464;28;20201;-93
2021/08/23 04:19:08;;;;;;;19.73;7.18;;;18.60;99.90;;;;;;4133043;28;20172;-93
2021/08/23 04:21:09;;;;;;;22.98;7.55;;;18.60;99.90;;;;;;4133436;28;20232;-93
2021/08/23 04:23:12;;;;;;;23.45;7.88;;;18.60;99.90;;;;;;4149196;28;20173;-94
2021/08/23 04:25:13;;;;;;;18.77;7.65;;;18.60;99.90;;;;;;4133576;28;20188;-94
2021/08/23 04:27:14;;;;;;;26.40;8.50;;;18.70;99.90;;;;;;4133303;28;20287;-94
2021/08/23 04:29:15;;;;;;;21.10;8.60;;;18.70;99.90;;;;;;4133354;28;20221;-94
2021/08/23 04:31:16;;;;;;;23.13;9.02;;;18.70;99.90;;;;;;4117156;28;20170;-93
2021/08/23 04:33:17;;;;;;;28.65;9.32;;;18.90;99.90;;;;;;4149292;28;20259;-93
2021/08/23 04:35:18;;;;;;;19.48;9.13;;;18.70;99.90;;;;;;4116625;28;20171;-94
2021/08/23 04:37:19;;;;;;;24.10;8.93;;;18.70;99.90;;;;;;4148969;28;20196;-95
2021/08/23 04:39:19;;;;;;;18.58;8.88;;;18.80;99.90;;;;;;4116746;28;20197;-95
2021/08/23 04:41:20;;;;;;;23.60;10.23;;;19.00;99.90;;;;;;4132870;28;20642;-94
2021/08/23 04:43:21;;;;;;;25.25;10.35;;;19.10;99.90;;;;;;4116882;28;20260;-92
2021/08/23 04:45:22;;;;;;;22.65;10.77;;;19.00;99.90;;;;;;4133324;28;20205;-96
2021/08/23 04:47:23;;;;;;;25.20;11.38;;;19.00;99.90;;;;;;4132844;28;20697;-94
2021/08/23 04:49:23;;;;;;;26.85;11.57;;;19.30;99.90;;;;;;4132486;28;20240;-93
2021/08/23 04:51:24;;;;;;;27.65;11.75;;;19.40;99.90;;;;;;4132575;28;20590;-94
2021/08/23 04:53:25;;;;;;;33.58;13.40;;;19.40;99.90;;;;;;4116813;28;20236;-93
2021/08/23 04:55:26;;;;;;;26.92;14.00;;;19.40;99.90;;;;;;4132924;28;20176;-93
2021/08/23 04:57:26;;;;;;;27.67;13.77;;;19.50;99.90;;;;;;4117128;28;20198;-93
2021/08/23 04:59:27;;;;;;;29.15;14.95;;;19.40;99.90;;;;;;4132572;28;20244;-92
2021/08/23 05:01:28;;;;;;;24.92;16.60;;;19.70;99.90;;;;;;4116336;28;20329;-93
2021/08/23 05:03:29;;;;;;;30.13;16.75;;;19.40;99.90;;;;;;4148529;28;20169;-92
2021/08/23 05:05:29;;;;;;;27.83;15.90;;;19.30;99.90;;;;;;4116194;28;20266;-94
2021/08/23 05:07:30;;;;;;;30.25;16.83;;;19.00;99.90;;;;;;4132432;28;20201;-92
2021/08/23 05:09:31;;;;;;;26.10;16.45;;;19.00;99.90;;;;;;4132388;28;20181;-92
2021/08/23 05:11:35;;;;;;;29.95;17.95;;;18.90;99.90;;;;;;4132058;28;20166;-94
2021/08/23 05:13:37;;;;;;;30.75;18.00;;;18.70;99.90;;;;;;4148387;28;20204;-92
2021/08/23 05:15:37;;;;;;;27.65;18.67;;;18.80;99.90;;;;;;4132554;28;20166;-94
2021/08/23 05:17:38;;;;;;;25.83;20.30;;;19.00;99.90;;;;;;4132444;28;20304;-93
2021/08/23 05:19:39;;;;;;;26.33;20.25;;;19.10;99.90;;;;;;4116611;28;20167;-94
2021/08/23 05:21:40;;;;;;;36.65;21.38;;;18.90;99.90;;;;;;4132751;28;20228;-94
2021/08/23 05:23:40;;;;;;;33.03;21.52;;;19.00;99.90;;;;;;4132429;28;20170;-92
2021/08/23 05:25:41;;;;;;;38.13;23.33;;;19.10;99.90;;;;;;4132450;28;20241;-95
2021/08/23 05:27:42;;;;;;;35.80;23.33;;;19.00;99.90;;;;;;4132812;28;20558;-94
2021/08/23 05:29:43;;;;;;;33.10;25.02;;;19.10;99.90;;;;;;4116538;28;20177;-93
2021/08/23 05:31:44;;;;;;;38.95;26.55;;;19.00;99.90;;;;;;4116336;28;20293;-95
2021/08/23 05:33:45;;;;;;;37.53;26.38;;;19.00;99.90;;;;;;4132563;28;20190;-93
2021/08/23 05:35:46;;;;;;;42.53;27.58;;;18.80;99.90;;;;;;4132847;28;20166;-92
2021/08/23 05:37:49;;;;;;;43.47;28.08;;;18.80;99.90;;;;;;4116633;28;20181;-92
2021/08/23 05:39:50;;;;;;;40.97;27.55;;;18.70;99.90;;;;;;4132720;28;20180;-93
2021/08/23 05:41:51;;;;;;;37.92;27.17;;;18.50;99.90;;;;;;4132604;28;20173;-93
2021/08/23 05:43:52;;;;;;;43.22;28.10;;;18.30;99.90;;;;;;4131956;28;20581;-94
2021/08/23 05:45:55;;;;;;;36.67;25.48;;;18.20;99.90;;;;;;4132972;28;20173;-91
2021/08/23 05:47:56;;;;;;;34.45;26.13;;;17.90;99.90;;;;;;4133672;28;20169;-94
2021/08/23 05:49:59;;;;;;;35.08;24.98;;;17.90;99.90;;;;;;4135679;28;20261;-93
2021/08/23 05:52:01;;;;;;;37.13;26.17;;;18.00;99.90;;;;;;4135619;28;20205;-92
2021/08/23 05:54:01;;;;;;;32.20;24.35;;;17.90;99.90;;;;;;4135171;28;20173;-94
2021/08/23 05:56:02;;;;;;;31.85;23.73;;;18.00;99.90;;;;;;4135340;28;20692;-93
2021/08/23 05:58:03;;;;;;;30.50;22.27;;;18.00;99.90;;;;;;4135383;28;20249;-94
2021/08/23 06:00:10;;;;;;;29.85;21.67;;;18.00;99.90;;;;;;4135964;28;20170;-93
2021/08/23 06:02:13;;;;;;;30.40;22.40;;;18.00;99.90;;;;;;4136011;28;20168;-94
2021/08/23 06:04:16;;;;;;;29.55;20.60;;;18.00;99.90;;;;;;4152174;28;20177;-94
2021/08/23 06:06:17;;;;;;;27.25;21.13;;;17.90;99.90;;;;;;4151378;28;20196;-95
2021/08/23 06:08:18;;;;;;;31.02;20.13;;;18.10;99.90;;;;;;4119172;28;20253;-93
2021/08/23 06:10:20;;;;;;;27.33;20.08;;;18.00;99.90;;;;;;4134892;28;20639;-94
2021/08/23 06:12:20;;;;;;;28.40;20.02;;;18.20;99.90;;;;;;4119187;28;20214;-94
2021/08/23 06:14:21;;;;;;;28.15;20.60;;;18.20;99.90;;;;;;4135078;28;20177;-93
2021/08/23 06:16:22;;;;;;;34.75;21.30;;;18.20;99.90;;;;;;4135043;28;20200;-96
2021/08/23 06:18:23;;;;;;;33.20;20.15;;;18.10;99.90;;;;;;4118629;28;20181;-93
2021/08/23 06:20:24;;;;;;;32.45;21.15;;;18.00;99.90;;;;;;4151751;28;20168;-93
2021/08/23 06:22:25;;;;;;;28.45;20.60;;;18.10;99.90;;;;;;4120523;28;20178;-94
2021/08/23 06:24:26;;;;;;;28.30;21.13;;;18.10;99.90;;;;;;4134926;28;20177;-93
2021/08/23 06:26:27;;;;;;;33.28;22.92;;;18.10;99.90;;;;;;4134758;28;20206;-95
2021/08/23 06:28:29;;;;;;;34.70;20.13;;;18.20;99.90;;;;;;4118651;28;20171;-95
2021/08/23 06:30:30;;;;;;;33.67;21.60;;;18.00;99.90;;;;;;4134671;28;20205;-93
2021/08/23 06:32:30;;;;;;;36.42;21.60;;;18.00;99.90;;;;;;4134795;28;20685;-93
2021/08/23 06:34:31;;;;;;;30.73;21.27;;;18.00;99.90;;;;;;4134695;28;20169;-92
2021/08/23 06:36:33;;;;;;;32.28;22.40;;;18.10;99.90;;;;;;4134824;28;20289;-93
2021/08/23 06:38:34;;;;;;;33.45;22.30;;;18.20;99.90;;;;;;4150997;28;20230;-93
2021/08/23 06:40:34;;;;;;;37.05;22.23;;;18.20;99.90;;;;;;4134581;28;20658;-95
2021/08/23 06:42:37;;;;;;;33.97;22.10;;;18.30;99.90;;;;;;4118745;28;20174;-93
2021/08/23 06:44:38;;;;;;;33.08;22.58;;;18.40;99.90;;;;;;4118585;28;20209;-94
2021/08/23 06:46:39;;;;;;;36.95;20.13;;;18.30;99.90;;;;;;4134625;28;20193;-94
2021/08/23 06:48:40;;;;;;;29.88;19.67;;;18.20;99.90;;;;;;4118601;28;20261;-93
2021/08/23 06:50:40;;;;;;;35.45;20.85;;;18.00;99.90;;;;;;4134641;28;20519;-93
2021/08/23 06:52:44;;;;;;;29.92;20.35;;;18.10;99.90;;;;;;4134404;28;20209;-95
2021/08/23 06:54:44;;;;;;;34.67;21.88;;;18.20;99.90;;;;;;4134474;28;20181;-93
2021/08/23 06:56:45;;;;;;;30.98;19.77;;;18.20;99.90;;;;;;4118436;28;20190;-93
2021/08/23 06:58:46;;;;;;;29.92;19.88;;;18.10;99.90;;;;;;4134036;28;20249;-93
2021/08/23 07:00:47;;;;;;;27.15;18.70;;;18.20;99.90;;;;;;4118529;28;20170;-94
2021/08/23 07:02:48;;;;;;;30.52;18.75;;;18.10;99.90;;;;;;4134141;28;20182;-92
2021/08/23 07:04:49;;;;;;;28.40;19.63;;;18.10;99.90;;;;;;4117907;28;20194;-93
2021/08/23 07:06:51;;;;;;;33.40;20.85;;;18.20;99.90;;;;;;4134463;28;20244;-92
2021/08/23 07:08:52;;;;;;;30.42;20.33;;;18.30;99.90;;;;;;4118110;28;20218;-92
2021/08/23 07:10:53;;;;;;;29.42;19.85;;;18.20;99.90;;;;;;4150467;28;20235;-93
2021/08/23 07:12:53;;;;;;;30.33;19.77;;;18.20;99.90;;;;;;4117900;28;20206;-92
2021/08/23 07:14:54;;;;;;;28.65;20.23;;;18.20;99.90;;;;;;4134049;28;20177;-93
2021/08/23 07:16:55;;;;;;;29.30;21.50;;;18.20;99.90;;;;;;4117980;28;20190;-92
2021/08/23 07:18:56;;;;;;;32.92;22.45;;;18.40;99.90;;;;;;4133934;28;20178;-93
2021/08/23 07:20:56;;;;;;;34.08;23.25;;;18.40;99.90;;;;;;4134034;28;20185;-93
2021/08/23 07:22:57;;;;;;;40.78;25.10;;;18.40;99.90;;;;;;4133866;28;20212;-94
2021/08/23 07:24:58;;;;;;;36.35;26.05;;;18.40;99.90;;;;;;4117921;28;20178;-94
2021/08/23 07:26:59;;;;;;;40.45;27.50;;;18.40;99.90;;;;;;4150176;28;20200;-92
2021/08/23 07:28:59;;;;;;;35.05;26.92;;;18.30;99.90;;;;;;4117721;28;20171;-94
2021/08/23 07:31:00;;;;;;;35.60;26.23;;;18.30;99.90;;;;;;4133634;28;20573;-93
2021/08/23 07:33:01;;;;;;;38.97;25.88;;;18.30;99.90;;;;;;4117664;28;20726;-93
2021/08/23 07:35:02;;;;;;;36.75;26.92;;;18.30;99.90;;;;;;4133434;28;20688;-92
2021/08/23 07:37:03;;;;;;;38.75;27.70;;;18.30;99.90;;;;;;4117453;28;20202;-92
2021/08/23 07:39:04;;;;;;;40.63;27.20;;;18.30;99.90;;;;;;4133477;28;20197;-93
2021/08/23 07:41:05;;;;;;;38.30;27.35;;;18.30;99.90;;;;;;4117882;28;20166;-93
2021/08/23 07:43:05;;;;;;;39.30;28.10;;;18.30;99.90;;;;;;4133742;28;20181;-93
2021/08/23 07:45:07;;;;;;;36.15;26.85;;;18.20;99.90;;;;;;4117597;28;20167;-93
2021/08/23 07:47:08;;;;;;;36.97;28.42;;;18.30;99.90;;;;;;4117446;28;20296;-93
2021/08/23 07:49:09;;;;;;;36.40;28.02;;;18.30;99.90;;;;;;4133581;28;20169;-93
2021/08/23 07:51:10;;;;;;;46.53;30.60;;;18.30;99.90;;;;;;4117610;28;20244;-92
2021/08/23 07:53:11;;;;;;;41.55;30.45;;;18.20;99.90;;;;;;4117671;28;20213;-94
2021/08/23 07:55:12;;;;;;;44.67;32.17;;;18.10;99.90;;;;;;4117647;28;20182;-95
2021/08/23 07:57:13;;;;;;;43.08;32.22;;;18.20;99.90;;;;;;4117583;28;20198;-93
2021/08/23 07:59:15;;;;;;;43.95;30.38;;;18.30;99.90;;;;;;4133442;28;20531;-93
2021/08/23 08:01:16;;;;;;;41.38;30.95;;;18.30;99.90;;;;;;4133653;28;20169;-91
2021/08/23 08:03:16;;;;;;;44.30;29.85;;;18.30;99.90;;;;;;4133429;28;20181;-94
2021/08/23 08:05:17;;;;;;;37.60;29.98;;;18.20;99.90;;;;;;4133406;28;20630;-94
2021/08/23 08:07:18;;;;;;;43.08;31.55;;;18.20;99.90;;;;;;4133349;28;20669;-93
2021/08/23 08:09:18;;;;;;;43.83;30.88;;;18.30;99.90;;;;;;4117230;28;20209;-93
2021/08/23 08:11:20;;;;;;;47.30;33.22;;;18.20;99.90;;;;;;4132512;28;20208;-93
2021/08/23 08:13:21;;;;;;;42.95;31.00;;;18.20;99.90;;;;;;4133068;28;20209;-93
2021/08/23 08:15:21;;;;;;;45.25;31.55;;;18.20;99.90;;;;;;4117146;28;20178;-93
2021/08/23 08:17:22;;;;;;;47.78;32.40;;;18.20;99.90;;;;;;4133074;28;20193;-92
2021/08/23 08:19:23;;;;;;;48.80;31.65;;;18.30;99.90;;;;;;4132939;28;20181;-91
2021/08/23 08:21:24;;;;;;;38.78;30.83;;;18.40;99.90;;;;;;4133070;28;20177;-92
2021/08/23 08:23:25;;;;;;;38.63;28.92;;;18.20;99.90;;;;;;4133099;28;20676;-92
2021/08/23 08:25:26;;;;;;;37.58;29.48;;;18.10;99.90;;;;;;4133454;28;20174;-93
2021/08/23 08:27:26;;;;;;;35.67;28.10;;;18.10;99.90;;;;;;4117355;28;20209;-93
2021/08/23 08:29:27;;;;;;;37.15;27.17;;;18.10;99.90;;;;;;4132915;28;20182;-92
2021/08/23 08:31:28;;;;;;;33.88;25.35;;;18.10;99.90;;;;;;4117030;28;20190;-93
2021/08/23 08:33:29;;;;;;;32.88;24.50;;;18.20;99.90;;;;;;4116632;28;20186;-92
2021/08/23 08:35:29;;;;;;;31.92;24.02;;;18.30;99.90;;;;;;4132759;28;20178;-91
2021/08/23 08:37:30;;;;;;;26.17;22.25;;;18.30;99.90;;;;;;4116874;28;20194;-91
2021/08/23 08:39:31;;;;;;;31.38;23.38;;;18.30;99.90;;;;;;4132695;28;20177;-92
2021/08/23 08:41:32;;;;;;;30.08;22.02;;;18.40;99.90;;;;;;4116605;28;20166;-93
2021/08/23 08:43:33;;;;;;;30.23;24.90;;;18.50;99.90;;;;;;4132735;28;20730;-91
2021/08/23 08:45:33;;;;;;;29.67;24.80;;;18.60;99.90;;;;;;4116816;28;20659;-92
2021/08/23 08:47:37;;;;;;;27.33;24.42;;;18.60;99.90;;;;;;4132836;28;20232;-93
2021/08/23 08:49:38;;;;;;;35.03;25.40;;;18.70;99.90;;;;;;4132559;28;20178;-91
2021/08/23 08:51:41;;;;;;;30.70;25.40;;;18.80;99.90;;;;;;4116562;28;20185;-94
2021/08/23 08:53:42;;;;;;;28.65;23.63;;;19.10;99.90;;;;;;4132591;28;20590;-93
2021/08/23 08:55:43;;;;;;;33.38;25.45;;;19.10;99.90;;;;;;4132904;28;20206;-92
2021/08/23 08:57:44;;;;;;;28.65;24.90;;;19.30;99.90;;;;;;4116628;28;20196;-94
2021/08/23 08:59:45;;;;;;;28.50;23.63;;;19.20;99.90;;;;;;4116915;28;20660;-94
2021/08/23 09:01:48;;;;;;;30.77;22.88;;;19.30;99.90;;;;;;4132711;28;20182;-92
2021/08/23 09:03:49;;;;;;;25.48;20.85;;;19.40;99.90;;;;;;4132648;28;20626;-92
2021/08/23 09:06:06;;;;;;;24.60;21.02;;;19.30;99.90;;;;;;4116589;28;20180;-93
2021/08/23 09:08:07;;;;;;;22.80;18.40;;;19.10;99.90;;;;;;4132742;28;20245;-92
2021/08/23 09:10:18;;;;;;;22.27;19.63;;;18.90;99.90;;;;;;4116468;28;20178;-93
2021/08/23 09:12:19;;;;;;;23.17;19.85;;;18.90;99.90;;;;;;4148642;28;20616;-91
2021/08/23 09:14:20;;;;;;;21.27;18.48;;;18.90;99.90;;;;;;4116389;28;20174;-94
2021/08/23 09:16:26;;;;;;;21.13;18.05;;;18.90;99.90;;;;;;4132167;28;20219;-92
2021/08/23 09:18:28;;;;;;;22.00;16.77;;;19.00;99.90;;;;;;4116188;28;20554;-92
2021/08/23 09:20:29;;;;;;;19.52;14.25;;;19.10;99.90;;;;;;4132575;28;20749;-93
2021/08/23 09:22:30;;;;;;;15.45;12.98;;;19.00;99.90;;;;;;4131717;28;20213;-92
2021/08/23 09:24:33;;;;;;;17.00;13.00;;;18.90;99.90;;;;;;4132619;28;20181;-93
2021/08/23 09:26:35;;;;;;;14.90;12.13;;;18.90;99.90;;;;;;4148245;28;20610;-93
2021/08/23 09:28:37;;;;;;;18.02;12.60;;;18.90;99.90;;;;;;4148454;28;20173;-93
2021/08/23 09:30:38;;;;;;;17.27;12.25;;;19.00;99.90;;;;;;4148543;28;20215;-92
2021/08/23 09:32:50;;;;;;;14.63;11.18;;;19.10;99.90;;;;;;4132312;28;20617;-92
2021/08/23 09:34:51;;;;;;;16.38;12.30;;;19.10;99.90;;;;;;4148279;28;20165;-93
2021/08/23 09:36:57;;;;;;;15.60;11.48;;;19.00;99.90;;;;;;4132041;28;20263;-93
2021/08/23 09:39:02;;;;;;;14.98;12.57;;;19.00;99.90;;;;;;4148660;28;20173;-93
2021/08/23 09:41:04;;;;;;;18.45;12.32;;;18.90;99.90;;;;;;4132477;28;20196;-91
2021/08/23 09:43:11;;;;;;;14.32;11.77;;;19.00;99.90;;;;;;4148388;28;20160;-92
2021/08/23 09:45:16;;;;;;;20.42;11.48;;;19.00;99.90;;;;;;4148517;28;20180;-92
2021/08/23 09:47:25;;;;;;;18.60;11.23;;;19.00;99.90;;;;;;4148382;28;20224;-92
2021/08/23 09:49:44;;;;;;;20.73;11.93;;;19.10;99.90;;;;;;4132361;28;20268;-92
2021/08/23 09:51:47;;;;;;;15.00;10.52;;;19.00;99.90;;;;;;4148332;28;20180;-91
2021/08/23 09:53:47;;;;;;;15.45;10.50;;;19.00;99.90;;;;;;4148235;28;20251;-93
2021/08/23 09:55:51;;;;;;;14.40;11.07;;;19.00;99.90;;;;;;4116069;28;20260;-94
2021/08/23 09:57:52;;;;;;;16.45;10.73;;;19.00;99.90;;;;;;4148233;28;20216;-92
2021/08/23 09:59:54;;;;;;;16.25;10.25;;;19.10;99.90;;;;;;4131962;28;20244;-93
2021/08/23 10:01:56;;;;;;;14.57;10.68;;;19.10;99.90;;;;;;4148188;28;20184;-92
2021/08/23 10:04:04;;;;;;;17.02;10.88;;;19.20;99.90;;;;;;4148333;28;20173;-92
2021/08/23 10:06:05;;;;;;;16.95;10.02;;;19.30;99.90;;;;;;4148384;28;20172;-92
2021/08/23 10:08:05;;;;;;;12.35;9.65;;;19.30;99.90;;;;;;4131876;28;20196;-91
2021/08/23 10:10:07;;;;;;;15.43;9.73;;;19.40;99.90;;;;;;4116065;28;20178;-92
2021/08/23 10:12:12;;;;;;;12.68;9.07;;;19.40;99.90;;;;;;4131764;28;20232;-92
2021/08/23 10:14:13;;;;;;;14.88;9.43;;;19.40;99.90;;;;;;4148155;28;20176;-91
2021/08/23 10:16:14;;;;;;;14.43;8.27;;;19.50;99.90;;;;;;4116611;28;20182;-93
2021/08/23 10:18:15;;;;;;;11.63;7.47;;;19.50;99.90;;;;;;4131767;28;20662;-93